createdAt,value
2018-08-03T00:00:11.012Z,77.20
2018-08-03T00:02:45.303Z,77.70
2018-08-03T00:05:19.649Z,77.60
2018-08-03T00:07:53.958Z,78.40
2018-08-03T00:10:28.370Z,80.00
2018-08-03T00:13:02.666Z,79.70
2018-08-03T00:15:36.962Z,78.80
2018-08-03T00:18:11.321Z,78.70
2018-08-03T00:20:45.630Z,78.50
2018-08-03T00:23:19.779Z,78.70
2018-08-03T00:25:54.108Z,78.70
2018-08-03T00:28:28.399Z,78.80
2018-08-03T00:31:02.818Z,78.90
2018-08-03T00:33:37.137Z,79.10
2018-08-03T00:36:11.558Z,79.50
2018-08-03T00:38:45.886Z,80.10
2018-08-03T00:41:20.289Z,80.70
2018-08-03T00:43:54.509Z,80.90
2018-08-03T00:46:28.773Z,80.20
2018-08-03T00:49:03.054Z,80.10
2018-08-03T00:51:38.070Z,81.10
2018-08-03T00:54:12.359Z,81.20
2018-08-03T00:56:46.661Z,81.70
2018-08-03T00:59:20.953Z,81.80
2018-08-03T01:01:55.136Z,81.70
2018-08-03T01:04:29.423Z,81.90
2018-08-03T01:07:03.742Z,82.20
2018-08-03T01:09:38.051Z,82.20
2018-08-03T01:12:12.249Z,82.30
2018-08-03T01:14:46.609Z,82.90
2018-08-03T01:17:20.825Z,83.10
2018-08-03T01:19:55.127Z,83.80
2018-08-03T01:25:03.826Z,83.80
2018-08-03T01:27:38.051Z,83.60
2018-08-03T01:30:12.315Z,83.50
2018-08-03T01:32:46.575Z,83.40
2018-08-03T01:35:20.739Z,84.20
2018-08-03T01:37:55.009Z,85.10
2018-08-03T01:40:29.242Z,86.00
2018-08-03T01:43:03.473Z,86.10
2018-08-03T01:45:37.805Z,86.00
2018-08-03T01:48:12.078Z,85.00
2018-08-03T01:50:46.307Z,84.90
2018-08-03T01:53:20.695Z,84.90
2018-08-03T01:55:54.996Z,85.00
2018-08-03T01:58:29.221Z,85.40
2018-08-03T02:01:03.514Z,85.40
2018-08-03T02:03:37.918Z,85.30
2018-08-03T02:06:12.234Z,85.30
2018-08-03T02:08:46.529Z,85.00
2018-08-03T02:11:20.860Z,85.60
2018-08-03T02:13:55.077Z,85.50
2018-08-03T02:16:29.578Z,85.60
2018-08-03T02:19:03.899Z,85.90
2018-08-03T02:21:38.186Z,86.30
2018-08-03T02:24:12.491Z,85.40
2018-08-03T02:26:46.847Z,85.80
2018-08-03T02:29:21.187Z,86.00
2018-08-03T02:31:55.582Z,86.00
2018-08-03T02:34:29.817Z,86.60
2018-08-03T02:37:04.006Z,86.40
2018-08-03T02:39:38.287Z,88.40
2018-08-03T02:42:12.590Z,88.30
2018-08-03T02:44:46.834Z,87.60
2018-08-03T02:49:55.306Z,87.00
2018-08-03T02:52:29.659Z,86.70
2018-08-03T02:55:04.063Z,86.70
2018-08-03T02:57:38.387Z,86.90
2018-08-03T03:00:12.706Z,86.30
2018-08-03T03:02:46.873Z,86.50
2018-08-03T03:05:21.177Z,86.60
2018-08-03T03:07:55.514Z,87.70
2018-08-03T03:10:29.809Z,88.60
2018-08-03T03:13:04.126Z,88.20
2018-08-03T03:15:38.320Z,87.20
2018-08-03T03:18:12.590Z,88.70
2018-08-03T03:20:46.994Z,88.60
2018-08-03T03:23:21.265Z,88.10
2018-08-03T03:25:55.507Z,88.10
2018-08-03T03:28:29.882Z,88.10
2018-08-03T03:31:04.151Z,87.70
2018-08-03T03:33:38.427Z,87.40
2018-08-03T03:36:12.708Z,87.50
2018-08-03T03:38:46.918Z,87.10
2018-08-03T03:41:21.205Z,87.10
2018-08-03T03:43:55.498Z,87.60
2018-08-03T03:46:29.781Z,88.00
2018-08-03T03:49:04.113Z,88.00
2018-08-03T03:51:38.454Z,87.50
2018-08-03T03:54:12.651Z,87.80
2018-08-03T03:56:46.883Z,87.90
2018-08-03T03:59:21.237Z,87.70
2018-08-03T04:01:55.582Z,87.50
2018-08-03T04:04:29.991Z,87.60
2018-08-03T04:07:04.218Z,88.10
2018-08-03T04:09:38.605Z,87.90
2018-08-03T04:12:12.989Z,87.70
2018-08-03T04:14:47.394Z,88.00
2018-08-03T04:17:21.702Z,88.20
2018-08-03T04:19:56.045Z,88.30
2018-08-03T04:22:30.335Z,88.50
2018-08-03T04:25:04.810Z,88.20
2018-08-03T04:27:39.082Z,88.50
2018-08-03T04:30:13.338Z,88.90
2018-08-03T04:32:47.625Z,88.50
2018-08-03T04:35:21.916Z,88.20
2018-08-03T04:37:56.243Z,88.40
2018-08-03T04:40:30.711Z,88.50
2018-08-03T04:45:39.097Z,88.40
2018-08-03T04:48:13.471Z,88.30
2018-08-03T04:50:47.647Z,88.50
2018-08-03T04:53:21.960Z,88.80
2018-08-03T04:55:56.282Z,88.90
2018-08-03T04:58:30.471Z,88.40
2018-08-03T05:01:04.854Z,88.60
2018-08-03T05:03:39.178Z,88.80
2018-08-03T05:06:13.575Z,89.10
2018-08-03T05:08:47.823Z,89.70
2018-08-03T05:11:22.169Z,88.80
2018-08-03T05:13:56.418Z,88.60
2018-08-03T05:16:30.544Z,88.70
2018-08-03T05:19:04.714Z,88.90
2018-08-03T05:21:38.979Z,89.10
2018-08-03T05:24:13.248Z,89.00
2018-08-03T05:26:47.502Z,89.20
2018-08-03T05:29:21.812Z,89.60
2018-08-03T05:31:56.074Z,89.30
2018-08-03T05:34:30.439Z,89.30
2018-08-03T05:37:04.648Z,89.60
2018-08-03T05:39:38.834Z,89.00
2018-08-03T05:42:13.121Z,89.00
2018-08-03T05:44:47.390Z,89.10
2018-08-03T05:47:21.599Z,88.80
2018-08-03T05:49:55.871Z,89.00
2018-08-03T05:52:30.090Z,88.30
2018-08-03T05:55:04.573Z,88.20
2018-08-03T05:57:38.762Z,87.80
2018-08-03T06:00:13.069Z,88.10
2018-08-03T06:02:47.479Z,87.90
2018-08-03T06:05:21.742Z,87.70
2018-08-03T06:07:56.022Z,88.00
2018-08-03T06:10:30.355Z,87.60
2018-08-03T06:13:04.615Z,87.70
2018-08-03T06:15:38.914Z,87.10
2018-08-03T06:18:13.214Z,87.10
2018-08-03T06:20:47.581Z,86.90
2018-08-03T06:23:21.841Z,86.30
2018-08-03T06:25:56.170Z,85.80
2018-08-03T06:28:30.471Z,85.40
2018-08-03T06:31:04.754Z,85.10
2018-08-03T06:33:39.099Z,84.40
2018-08-03T06:38:47.373Z,83.50
2018-08-03T06:41:21.571Z,83.00
2018-08-03T06:43:55.830Z,82.80
2018-08-03T06:46:30.004Z,82.80
2018-08-03T06:49:04.547Z,82.00
2018-08-03T06:51:38.889Z,81.90
2018-08-03T06:54:13.194Z,82.00
2018-08-03T06:56:47.654Z,81.50
2018-08-03T06:59:21.954Z,81.50
2018-08-03T07:01:56.219Z,81.30
2018-08-03T07:04:30.741Z,80.00
2018-08-03T07:07:05.028Z,80.00
2018-08-03T07:09:39.363Z,79.50
2018-08-03T07:12:13.638Z,79.60
2018-08-03T07:14:47.980Z,79.50
2018-08-03T07:17:22.254Z,78.90
2018-08-03T07:19:56.608Z,78.60
2018-08-03T07:22:30.870Z,78.20
2018-08-03T07:25:05.414Z,78.10
2018-08-03T07:30:13.970Z,78.10
2018-08-03T07:32:48.114Z,77.40
2018-08-03T07:35:22.582Z,77.20
2018-08-03T07:37:56.951Z,76.00
2018-08-03T07:40:31.265Z,75.80
2018-08-03T07:43:05.606Z,75.30
2018-08-03T07:48:13.862Z,74.50
2018-08-03T07:50:48.145Z,73.60
2018-08-03T07:53:22.379Z,73.00
2018-08-03T07:55:56.582Z,73.60
2018-08-03T07:58:30.917Z,74.30
2018-08-03T08:01:05.290Z,73.40
2018-08-03T08:03:39.561Z,72.10
2018-08-03T08:06:13.734Z,72.30
2018-08-03T08:08:48.036Z,71.90
2018-08-03T08:11:22.290Z,71.10
2018-08-03T08:13:56.589Z,71.30
2018-08-03T08:16:30.846Z,70.10
2018-08-03T08:19:05.246Z,71.00
2018-08-03T08:21:39.561Z,70.90
2018-08-03T08:24:13.874Z,69.40
2018-08-03T08:26:48.190Z,68.30
2018-08-03T08:29:22.734Z,68.80
2018-08-03T08:31:57.381Z,68.80
2018-08-03T08:34:31.750Z,67.20
2018-08-03T08:37:06.057Z,66.50
2018-08-03T08:42:14.222Z,67.70
2018-08-03T08:44:48.547Z,67.10
2018-08-03T08:47:22.915Z,65.30
2018-08-03T08:49:57.229Z,65.20
2018-08-03T08:52:31.563Z,65.70
2018-08-03T08:55:06.031Z,64.50
2018-08-03T09:00:14.597Z,63.00
2018-08-03T09:02:49.082Z,62.90
2018-08-03T09:05:23.311Z,62.40
2018-08-03T09:07:57.547Z,63.60
2018-08-03T09:10:31.795Z,59.40
2018-08-03T09:13:06.387Z,59.90
2018-08-03T09:15:40.654Z,61.50
2018-08-03T09:18:14.924Z,60.30
2018-08-03T09:20:49.202Z,60.70
2018-08-03T09:23:23.562Z,57.10
2018-08-03T09:25:57.840Z,57.40
2018-08-03T09:28:32.156Z,58.00
2018-08-03T09:31:06.626Z,57.20
2018-08-03T09:33:40.832Z,55.90
2018-08-03T09:36:15.110Z,55.90
2018-08-03T09:38:49.422Z,55.90
2018-08-03T09:41:23.622Z,55.30
2018-08-03T09:43:57.883Z,55.60
2018-08-03T09:46:32.214Z,54.60
2018-08-03T09:49:06.855Z,54.50
2018-08-03T09:51:41.137Z,54.40
2018-08-03T09:54:15.350Z,53.50
2018-08-03T09:56:49.594Z,52.10
2018-08-03T09:59:23.885Z,50.80
2018-08-03T10:01:58.151Z,50.50
2018-08-03T10:04:32.374Z,51.20
2018-08-03T10:07:06.870Z,52.50
2018-08-03T10:09:41.142Z,50.80
2018-08-03T10:12:15.466Z,49.80
2018-08-03T10:14:49.805Z,52.00
2018-08-03T10:17:24.058Z,51.40
2018-08-03T10:19:58.310Z,49.10
2018-08-03T10:22:32.596Z,49.70
2018-08-03T10:25:06.935Z,50.10
2018-08-03T10:27:41.150Z,47.60
2018-08-03T10:30:15.311Z,48.60
2018-08-03T10:32:49.745Z,48.50
2018-08-03T10:35:23.938Z,48.70
2018-08-03T10:37:58.278Z,46.70
2018-08-03T10:40:32.595Z,48.50
2018-08-03T10:43:07.058Z,45.40
2018-08-03T10:45:41.325Z,47.30
2018-08-03T10:48:15.727Z,47.50
2018-08-03T10:50:50.015Z,44.00
2018-08-03T10:53:24.343Z,45.30
2018-08-03T10:55:58.542Z,43.60
2018-08-03T10:58:32.694Z,45.90
2018-08-03T11:01:06.972Z,44.70
2018-08-03T11:03:41.278Z,44.70
2018-08-03T11:06:15.637Z,45.80
2018-08-03T11:08:49.786Z,43.40
2018-08-03T11:11:24.027Z,41.80
2018-08-03T11:13:58.497Z,43.90
2018-08-03T11:16:32.573Z,43.50
2018-08-03T11:19:06.864Z,42.00
2018-08-03T11:21:41.151Z,41.60
2018-08-03T11:24:15.631Z,39.70
2018-08-03T11:26:49.684Z,40.80
2018-08-03T11:29:23.909Z,41.40
2018-08-03T11:31:58.205Z,41.40
2018-08-03T11:34:32.486Z,41.40
2018-08-03T11:37:06.764Z,39.50
2018-08-03T11:39:41.015Z,41.80
2018-08-03T11:42:15.295Z,38.40
2018-08-03T11:44:49.610Z,39.20
2018-08-03T11:47:23.852Z,41.10
2018-08-03T11:49:58.045Z,39.70
2018-08-03T11:52:32.334Z,40.60
2018-08-03T11:55:06.685Z,40.30
2018-08-03T11:57:40.901Z,38.20
2018-08-03T12:00:15.214Z,39.00
2018-08-03T12:02:49.407Z,41.10
2018-08-03T12:05:23.592Z,38.10
2018-08-03T12:07:58.335Z,40.10
2018-08-03T12:10:32.705Z,43.60
2018-08-03T12:13:06.982Z,40.70
2018-08-03T12:15:41.162Z,40.80
2018-08-03T12:18:15.606Z,41.10
2018-08-03T12:20:49.824Z,40.70
2018-08-03T12:23:24.200Z,40.90
2018-08-03T12:25:58.393Z,41.10
2018-08-03T12:28:32.703Z,41.70
2018-08-03T12:31:07.135Z,41.00
2018-08-03T12:33:41.411Z,41.90
2018-08-03T12:36:15.559Z,43.10
2018-08-03T12:38:49.998Z,42.60
2018-08-03T12:41:24.202Z,41.60
2018-08-03T12:43:58.382Z,37.40
2018-08-03T12:46:32.622Z,37.10
2018-08-03T12:49:06.868Z,38.60
2018-08-03T12:51:41.118Z,37.50
2018-08-03T12:54:15.534Z,36.60
2018-08-03T12:56:49.888Z,40.00
2018-08-03T12:59:24.353Z,39.80
2018-08-03T13:01:58.651Z,41.00
2018-08-03T13:04:33.037Z,38.70
2018-08-03T13:07:08.294Z,37.30
2018-08-03T13:12:16.674Z,37.20
2018-08-03T13:14:51.047Z,38.80
2018-08-03T13:17:25.214Z,36.50
2018-08-03T13:19:59.567Z,36.30
2018-08-03T13:22:33.858Z,36.30
2018-08-03T13:25:08.142Z,36.10
2018-08-03T13:27:42.282Z,34.30
2018-08-03T13:30:16.637Z,34.80
2018-08-03T13:32:50.910Z,34.00
2018-08-03T13:35:25.109Z,35.00
2018-08-03T13:37:59.483Z,34.10
2018-08-03T13:40:33.851Z,35.70
2018-08-03T13:43:08.104Z,34.30
2018-08-03T13:45:42.403Z,34.50
2018-08-03T13:48:16.690Z,32.60
2018-08-03T13:50:51.082Z,34.50
2018-08-03T13:53:25.659Z,33.00
2018-08-03T13:55:59.852Z,33.10
2018-08-03T13:58:34.130Z,32.80
2018-08-03T14:01:19.879Z,34.00
2018-08-03T14:03:54.357Z,32.80
2018-08-03T14:06:28.655Z,32.90
2018-08-03T14:09:03.375Z,33.30
2018-08-03T14:11:37.522Z,35.00
2018-08-03T14:14:11.770Z,34.00
2018-08-03T14:16:45.965Z,33.30
2018-08-03T14:21:54.401Z,34.40
2018-08-03T14:24:28.617Z,32.40
2018-08-03T14:27:03.473Z,32.40
2018-08-03T14:29:37.813Z,33.70
2018-08-03T14:32:12.061Z,33.90
2018-08-03T14:34:46.387Z,34.00
2018-08-03T14:37:20.547Z,32.80
2018-08-03T14:39:55.056Z,33.40
2018-08-03T14:42:29.354Z,33.20
2018-08-03T14:47:37.667Z,32.10
2018-08-03T14:50:12.085Z,32.50
2018-08-03T14:52:46.395Z,31.30
2018-08-03T14:55:20.765Z,31.30
2018-08-03T14:57:55.061Z,31.60
2018-08-03T15:00:29.270Z,31.70
2018-08-03T15:03:03.432Z,32.30
2018-08-03T15:05:37.714Z,32.10
2018-08-03T15:08:11.934Z,31.70
2018-08-03T15:10:46.346Z,32.20
2018-08-03T15:13:20.726Z,32.40
2018-08-03T15:15:55.001Z,31.40
2018-08-03T15:18:29.237Z,32.70
2018-08-03T15:21:03.587Z,33.30
2018-08-03T15:23:37.785Z,32.50
2018-08-03T15:26:12.001Z,32.20
2018-08-03T15:28:46.170Z,32.50
2018-08-03T15:31:20.485Z,32.20
2018-08-03T15:33:54.763Z,30.50
2018-08-03T15:36:29.050Z,31.90
2018-08-03T15:39:03.487Z,31.70
2018-08-03T15:41:37.775Z,31.20
2018-08-03T15:44:12.030Z,31.40
2018-08-03T15:46:46.213Z,30.70
2018-08-03T15:49:20.535Z,30.30
2018-08-03T15:51:54.879Z,31.00
2018-08-03T15:54:29.257Z,31.80
2018-08-03T15:57:03.565Z,30.30
2018-08-03T15:59:38.077Z,31.60
2018-08-03T16:02:12.339Z,32.40
2018-08-03T16:04:46.541Z,31.40
2018-08-03T16:07:20.794Z,31.70
2018-08-03T16:09:55.066Z,30.50
2018-08-03T16:12:29.373Z,30.80
2018-08-03T16:15:03.525Z,31.60
2018-08-03T16:17:37.767Z,32.10
2018-08-03T16:20:12.031Z,32.60
2018-08-03T16:22:46.355Z,32.40
2018-08-03T16:25:20.699Z,31.50
2018-08-03T16:27:54.841Z,32.00
2018-08-03T16:33:03.085Z,32.30
2018-08-03T16:35:37.346Z,31.40
2018-08-03T16:38:11.758Z,31.70
2018-08-03T16:43:20.374Z,32.50
2018-08-03T16:45:54.664Z,32.40
2018-08-03T16:48:29.005Z,32.20
2018-08-03T16:51:03.256Z,33.60
2018-08-03T16:53:37.539Z,32.60
2018-08-03T16:56:11.803Z,32.50
2018-08-03T16:58:46.139Z,33.60
2018-08-03T17:01:20.503Z,33.50
2018-08-03T17:03:54.823Z,33.50
2018-08-03T17:06:29.282Z,34.80
2018-08-03T17:09:04.091Z,33.80
2018-08-03T17:11:38.522Z,34.60
2018-08-03T17:14:12.662Z,34.40
2018-08-03T17:16:46.939Z,34.90
2018-08-03T17:19:21.243Z,35.90
2018-08-03T17:21:55.583Z,35.40
2018-08-03T17:24:29.827Z,36.50
2018-08-03T17:27:04.146Z,37.00
2018-08-03T17:29:38.417Z,37.10
2018-08-03T17:32:12.705Z,38.80
2018-08-03T17:34:47.018Z,38.30
2018-08-03T17:37:21.322Z,37.00
2018-08-03T17:39:55.598Z,38.40
2018-08-03T17:42:30.027Z,38.60
2018-08-03T17:45:04.539Z,39.20
2018-08-03T17:47:38.817Z,39.10
2018-08-03T17:50:13.136Z,39.70
2018-08-03T17:52:47.522Z,40.10
2018-08-03T17:55:21.902Z,39.30
2018-08-03T17:57:56.200Z,41.60
2018-08-03T18:00:30.510Z,43.80
2018-08-03T18:03:05.085Z,44.90
2018-08-03T18:05:39.366Z,45.10
2018-08-03T18:08:13.663Z,46.20
2018-08-03T18:10:47.978Z,45.80
2018-08-03T18:13:22.294Z,46.00
2018-08-03T18:15:56.594Z,46.40
2018-08-03T18:18:31.010Z,46.80
2018-08-03T18:21:05.234Z,46.70
2018-08-03T18:23:39.553Z,46.90
2018-08-03T18:26:13.658Z,47.10
2018-08-03T18:28:47.950Z,47.00
2018-08-03T18:31:22.335Z,47.20
2018-08-03T18:33:56.522Z,47.40
2018-08-03T18:36:30.746Z,48.10
2018-08-03T18:39:07.178Z,48.10
2018-08-03T18:41:41.450Z,48.30
2018-08-03T18:44:15.789Z,48.70
2018-08-03T18:46:50.195Z,48.40
2018-08-03T18:49:24.444Z,48.60
2018-08-03T18:51:58.770Z,49.00
2018-08-03T18:54:33.216Z,49.20
2018-08-03T18:57:07.563Z,49.20
2018-08-03T18:59:41.830Z,49.40
2018-08-03T19:02:16.123Z,50.10
2018-08-03T19:04:50.442Z,49.70
2018-08-03T19:07:24.728Z,50.00
2018-08-03T19:09:59.043Z,50.30
2018-08-03T19:12:33.395Z,49.90
2018-08-03T19:15:07.893Z,50.20
2018-08-03T19:17:42.194Z,50.50
2018-08-03T19:20:16.608Z,50.70
2018-08-03T19:22:50.750Z,51.00
2018-08-03T19:27:59.470Z,51.20
2018-08-03T19:30:33.755Z,51.40
2018-08-03T19:33:08.126Z,51.50
2018-08-03T19:35:42.413Z,51.60
2018-08-03T19:38:16.660Z,52.00
2018-08-03T19:40:51.122Z,51.90
2018-08-03T19:43:25.385Z,52.00
2018-08-03T19:45:59.696Z,52.50
2018-08-03T19:48:33.998Z,52.10
2018-08-03T19:51:08.223Z,52.40
2018-08-03T19:53:42.611Z,51.70
2018-08-03T19:56:16.858Z,51.80
2018-08-03T19:58:51.557Z,51.60
2018-08-03T20:01:25.659Z,51.90
2018-08-03T20:04:00.398Z,51.60
2018-08-03T20:06:34.603Z,51.60
2018-08-03T20:09:10.710Z,52.00
2018-08-03T20:11:45.006Z,52.10
2018-08-03T20:14:19.306Z,52.10
2018-08-03T20:16:53.591Z,52.10
2018-08-03T20:19:27.798Z,52.30
2018-08-03T20:22:02.113Z,53.10
2018-08-03T20:24:36.394Z,52.90
2018-08-03T20:27:10.630Z,52.50
2018-08-03T20:29:45.151Z,53.20
2018-08-03T20:34:53.297Z,52.90
2018-08-03T20:37:27.631Z,53.60
2018-08-03T20:40:01.799Z,53.60
2018-08-03T20:42:36.094Z,53.20
2018-08-03T20:45:10.489Z,53.10
2018-08-03T20:47:44.795Z,53.10
2018-08-03T20:50:19.182Z,53.10
2018-08-03T20:52:53.566Z,53.90
2018-08-03T20:55:28.112Z,53.90
2018-08-03T20:58:02.395Z,53.70
2018-08-03T21:00:36.713Z,53.90
2018-08-03T21:03:11.060Z,54.00
2018-08-03T21:05:45.351Z,53.90
2018-08-03T21:08:19.570Z,53.80
2018-08-03T21:10:53.826Z,54.40
2018-08-03T21:13:27.951Z,54.50
2018-08-03T21:16:02.431Z,55.80
2018-08-03T21:18:36.766Z,55.20
2018-08-03T21:21:11.141Z,55.80
2018-08-03T21:23:45.363Z,55.40
2018-08-03T21:26:19.781Z,56.10
2018-08-03T21:28:54.146Z,56.70
2018-08-03T21:31:28.594Z,57.00
2018-08-03T21:34:02.914Z,56.80
2018-08-03T21:36:37.174Z,57.00
2018-08-03T21:39:12.125Z,57.50
2018-08-03T21:41:46.331Z,57.40
2018-08-03T21:44:20.648Z,57.40
2018-08-03T21:46:54.955Z,57.50
2018-08-03T21:49:29.211Z,58.40
2018-08-03T21:52:03.646Z,58.40
2018-08-03T21:54:37.841Z,57.50
2018-08-03T21:57:12.126Z,58.50
2018-08-03T21:59:46.400Z,57.90
2018-08-03T22:02:20.814Z,58.60
2018-08-03T22:04:55.056Z,58.90
2018-08-03T22:07:29.348Z,57.90
2018-08-03T22:10:03.669Z,57.00
2018-08-03T22:12:37.993Z,57.10
2018-08-03T22:15:12.259Z,56.10
2018-08-03T22:17:46.441Z,56.50
2018-08-03T22:20:20.614Z,57.30
2018-08-03T22:22:54.796Z,56.30
2018-08-03T22:25:29.053Z,56.90
2018-08-03T22:28:03.413Z,58.10
2018-08-03T22:30:37.735Z,58.50
2018-08-03T22:33:12.003Z,59.10
2018-08-03T22:35:46.288Z,59.60
2018-08-03T22:38:20.598Z,59.80
2018-08-03T22:40:54.931Z,60.30
2018-08-03T22:43:29.207Z,61.00
2018-08-03T22:46:03.506Z,61.70
2018-08-03T22:48:37.771Z,62.00
2018-08-03T22:51:12.122Z,61.00
2018-08-03T22:53:46.338Z,61.30
2018-08-03T22:56:20.682Z,61.50
2018-08-03T22:58:54.949Z,61.50
2018-08-03T23:01:29.349Z,61.80
2018-08-03T23:04:03.634Z,60.90
2018-08-03T23:06:37.957Z,59.80
2018-08-03T23:09:12.286Z,59.30
2018-08-03T23:11:46.643Z,58.90
2018-08-03T23:14:20.846Z,59.70
2018-08-03T23:16:55.190Z,58.60
2018-08-03T23:19:29.498Z,58.40
2018-08-03T23:22:03.879Z,58.40
2018-08-03T23:24:38.175Z,59.50
2018-08-03T23:27:12.525Z,58.50
2018-08-03T23:29:46.790Z,58.10
2018-08-03T23:32:21.145Z,58.10
2018-08-03T23:34:55.446Z,58.20
2018-08-03T23:37:29.809Z,58.50
2018-08-03T23:40:04.391Z,59.30
2018-08-03T23:42:38.718Z,59.40
2018-08-03T23:45:13.079Z,59.40
2018-08-03T23:47:47.354Z,59.00
2018-08-03T23:50:21.663Z,60.00
2018-08-03T23:52:55.993Z,59.90
2018-08-03T23:58:04.344Z,60.30
